sensor_id;sensor_type;location;lat;lon;timestamp;temperature;humidity
3380;DHT22;1703;51.964;7.642;2024-02-26T00:01:05;7.00;99.90
3380;DHT22;1703;51.964;7.642;2024-02-26T00:03:33;6.90;99.90
3380;DHT22;1703;51.964;7.642;2024-02-26T00:06:01;7.00;99.90
3380;DHT22;1703;51.964;7.642;2024-02-26T00:08:28;7.00;99.90
3380;DHT22;1703;51.964;7.642;2024-02-26T00:10:55;7.00;99.90
3380;DHT22;1703;51.964;7.642;2024-02-26T00:13:21;7.00;99.90
3380;DHT22;1703;51.964;7.642;2024-02-26T00:15:48;6.90;99.90
3380;DHT22;1703;51.964;7.642;2024-02-26T00:18:15;7.00;99.90
3380;DHT22;1703;51.964;7.642;2024-02-26T00:20:43;7.00;99.90
3380;DHT22;1703;51.964;7.642;2024-02-26T00:23:10;7.00;99.90
3380;DHT22;1703;51.964;7.642;2024-02-26T00:25:36;7.00;99.90
3380;DHT22;1703;51.964;7.642;2024-02-26T00:28:04;7.10;99.90
3380;DHT22;1703;51.964;7.642;2024-02-26T00:30:31;7.20;99.90
3380;DHT22;1703;51.964;7.642;2024-02-26T00:32:58;7.10;99.90
3380;DHT22;1703;51.964;7.642;2024-02-26T00:35:24;7.10;99.90
3380;DHT22;1703;51.964;7.642;2024-02-26T00:37:53;7.10;99.90
3380;DHT22;1703;51.964;7.642;2024-02-26T00:40:19;7.10;99.90
3380;DHT22;1703;51.964;7.642;2024-02-26T00:42:46;7.20;99.90
3380;DHT22;1703;51.964;7.642;2024-02-26T00:45:13;7.20;99.90
3380;DHT22;1703;51.964;7.642;2024-02-26T00:47:42;7.20;99.90
3380;DHT22;1703;51.964;7.642;2024-02-26T00:50:10;7.30;99.90
3380;DHT22;1703;51.964;7.642;2024-02-26T00:52:37;7.20;99.90
3380;DHT22;1703;51.964;7.642;2024-02-26T00:55:06;7.20;99.90
3380;DHT22;1703;51.964;7.642;2024-02-26T00:57:33;7.10;99.90
3380;DHT22;1703;51.964;7.642;2024-02-26T01:00:00;7.10;99.90
3380;DHT22;1703;51.964;7.642;2024-02-26T01:02:27;7.10;99.90
3380;DHT22;1703;51.964;7.642;2024-02-26T01:04:54;7.20;99.90
3380;DHT22;1703;51.964;7.642;2024-02-26T01:07:20;7.10;99.90
3380;DHT22;1703;51.964;7.642;2024-02-26T01:09:47;7.20;99.90
3380;DHT22;1703;51.964;7.642;2024-02-26T01:12:15;7.20;99.90
3380;DHT22;1703;51.964;7.642;2024-02-26T01:14:42;7.10;99.90
3380;DHT22;1703;51.964;7.642;2024-02-26T01:17:08;7.20;99.90
3380;DHT22;1703;51.964;7.642;2024-02-26T01:19:35;7.20;99.90
3380;DHT22;1703;51.964;7.642;2024-02-26T01:22:02;7.20;99.90
3380;DHT22;1703;51.964;7.642;2024-02-26T01:24:29;7.20;99.90
3380;DHT22;1703;51.964;7.642;2024-02-26T01:26:56;7.10;99.90
3380;DHT22;1703;51.964;7.642;2024-02-26T01:29:24;7.10;99.90
3380;DHT22;1703;51.964;7.642;2024-02-26T01:31:51;7.10;99.90
3380;DHT22;1703;51.964;7.642;2024-02-26T01:34:17;7.10;99.90
3380;DHT22;1703;51.964;7.642;2024-02-26T01:36:44;7.10;99.90
3380;DHT22;1703;51.964;7.642;2024-02-26T01:39:11;7.10;99.90
3380;DHT22;1703;51.964;7.642;2024-02-26T01:41:38;7.10;99.90
3380;DHT22;1703;51.964;7.642;2024-02-26T01:44:05;7.10;99.90
3380;DHT22;1703;51.964;7.642;2024-02-26T01:46:34;7.10;99.90
3380;DHT22;1703;51.964;7.642;2024-02-26T01:49:02;7.10;99.90
3380;DHT22;1703;51.964;7.642;2024-02-26T01:51:31;7.10;99.90
3380;DHT22;1703;51.964;7.642;2024-02-26T01:53:59;7.20;99.90
3380;DHT22;1703;51.964;7.642;2024-02-26T01:56:28;7.20;99.90
3380;DHT22;1703;51.964;7.642;2024-02-26T01:58:57;7.20;99.90
3380;DHT22;1703;51.964;7.642;2024-02-26T02:01:25;7.20;99.90
3380;DHT22;1703;51.964;7.642;2024-02-26T02:03:57;7.20;99.90
3380;DHT22;1703;51.964;7.642;2024-02-26T02:06:24;7.20;99.90
3380;DHT22;1703;51.964;7.642;2024-02-26T02:08:52;7.20;99.90
3380;DHT22;1703;51.964;7.642;2024-02-26T02:11:19;7.20;99.90
3380;DHT22;1703;51.964;7.642;2024-02-26T02:13:46;7.20;99.90
3380;DHT22;1703;51.964;7.642;2024-02-26T02:16:13;7.30;99.90
3380;DHT22;1703;51.964;7.642;2024-02-26T02:18:40;7.30;99.90
3380;DHT22;1703;51.964;7.642;2024-02-26T02:21:08;7.30;99.90
3380;DHT22;1703;51.964;7.642;2024-02-26T02:23:35;7.30;99.90
3380;DHT22;1703;51.964;7.642;2024-02-26T02:26:02;7.30;99.90
3380;DHT22;1703;51.964;7.642;2024-02-26T02:28:28;7.30;99.90
3380;DHT22;1703;51.964;7.642;2024-02-26T02:30:56;7.40;99.90
3380;DHT22;1703;51.964;7.642;2024-02-26T02:33:23;7.30;99.90
3380;DHT22;1703;51.964;7.642;2024-02-26T02:35:51;7.40;99.90
3380;DHT22;1703;51.964;7.642;2024-02-26T02:38:21;7.30;99.90
3380;DHT22;1703;51.964;7.642;2024-02-26T02:40:49;7.40;99.90
3380;DHT22;1703;51.964;7.642;2024-02-26T02:43:16;7.40;99.90
3380;DHT22;1703;51.964;7.642;2024-02-26T02:45:42;7.40;99.90
3380;DHT22;1703;51.964;7.642;2024-02-26T02:48:10;7.40;99.90
3380;DHT22;1703;51.964;7.642;2024-02-26T02:50:37;7.40;99.90
3380;DHT22;1703;51.964;7.642;2024-02-26T02:53:04;7.40;99.90
3380;DHT22;1703;51.964;7.642;2024-02-26T02:55:32;7.40;99.90
3380;DHT22;1703;51.964;7.642;2024-02-26T02:57:58;7.30;99.90
3380;DHT22;1703;51.964;7.642;2024-02-26T03:00:25;7.30;99.90
3380;DHT22;1703;51.964;7.642;2024-02-26T03:02:52;7.40;99.90
3380;DHT22;1703;51.964;7.642;2024-02-26T03:05:19;7.40;99.90
3380;DHT22;1703;51.964;7.642;2024-02-26T03:07:45;7.40;99.90
3380;DHT22;1703;51.964;7.642;2024-02-26T03:10:12;7.40;99.90
3380;DHT22;1703;51.964;7.642;2024-02-26T03:12:40;7.40;99.90
3380;DHT22;1703;51.964;7.642;2024-02-26T03:15:07;7.40;99.90
3380;DHT22;1703;51.964;7.642;2024-02-26T03:17:34;7.40;99.90
3380;DHT22;1703;51.964;7.642;2024-02-26T03:20:01;7.50;99.90
3380;DHT22;1703;51.964;7.642;2024-02-26T03:22:29;7.50;99.90
3380;DHT22;1703;51.964;7.642;2024-02-26T03:24:56;7.60;99.90
3380;DHT22;1703;51.964;7.642;2024-02-26T03:27:23;7.60;99.90
3380;DHT22;1703;51.964;7.642;2024-02-26T03:29:51;7.60;99.90
3380;DHT22;1703;51.964;7.642;2024-02-26T03:32:19;7.40;99.90
3380;DHT22;1703;51.964;7.642;2024-02-26T03:34:45;7.50;99.90
3380;DHT22;1703;51.964;7.642;2024-02-26T03:37:12;7.50;99.90
3380;DHT22;1703;51.964;7.642;2024-02-26T03:39:39;7.50;99.90
3380;DHT22;1703;51.964;7.642;2024-02-26T03:42:06;7.60;99.90
3380;DHT22;1703;51.964;7.642;2024-02-26T03:44:33;7.60;99.90
3380;DHT22;1703;51.964;7.642;2024-02-26T03:47:01;7.70;99.90
3380;DHT22;1703;51.964;7.642;2024-02-26T03:49:27;7.70;99.90
3380;DHT22;1703;51.964;7.642;2024-02-26T03:51:54;7.60;99.90
3380;DHT22;1703;51.964;7.642;2024-02-26T03:54:22;7.60;99.90
3380;DHT22;1703;51.964;7.642;2024-02-26T03:56:48;7.60;99.90
3380;DHT22;1703;51.964;7.642;2024-02-26T03:59:15;7.60;99.90
3380;DHT22;1703;51.964;7.642;2024-02-26T04:01:45;7.60;99.90
3380;DHT22;1703;51.964;7.642;2024-02-26T04:04:14;7.60;99.90
3380;DHT22;1703;51.964;7.642;2024-02-26T04:06:44;7.60;99.90
3380;DHT22;1703;51.964;7.642;2024-02-26T04:09:11;7.50;99.90
3380;DHT22;1703;51.964;7.642;2024-02-26T04:11:37;7.60;99.90
3380;DHT22;1703;51.964;7.642;2024-02-26T04:14:04;7.70;99.90
3380;DHT22;1703;51.964;7.642;2024-02-26T04:16:34;7.70;99.90
3380;DHT22;1703;51.964;7.642;2024-02-26T04:19:00;7.70;99.90
3380;DHT22;1703;51.964;7.642;2024-02-26T04:21:29;7.70;99.90
3380;DHT22;1703;51.964;7.642;2024-02-26T04:23:55;7.60;99.90
3380;DHT22;1703;51.964;7.642;2024-02-26T04:26:26;7.70;99.90
3380;DHT22;1703;51.964;7.642;2024-02-26T04:28:52;7.70;99.90
3380;DHT22;1703;51.964;7.642;2024-02-26T04:31:19;7.70;99.90
3380;DHT22;1703;51.964;7.642;2024-02-26T04:33:46;7.70;99.90
3380;DHT22;1703;51.964;7.642;2024-02-26T04:36:13;7.70;99.90
3380;DHT22;1703;51.964;7.642;2024-02-26T04:38:42;7.70;99.90
3380;DHT22;1703;51.964;7.642;2024-02-26T04:41:08;7.70;99.90
3380;DHT22;1703;51.964;7.642;2024-02-26T04:43:35;7.70;99.90
3380;DHT22;1703;51.964;7.642;2024-02-26T04:46:06;7.70;99.90
3380;DHT22;1703;51.964;7.642;2024-02-26T04:48:34;7.70;99.90
3380;DHT22;1703;51.964;7.642;2024-02-26T04:51:00;7.70;99.90
3380;DHT22;1703;51.964;7.642;2024-02-26T04:53:27;7.70;99.90
3380;DHT22;1703;51.964;7.642;2024-02-26T04:55:55;7.70;99.90
3380;DHT22;1703;51.964;7.642;2024-02-26T04:58:23;7.70;99.90
3380;DHT22;1703;51.964;7.642;2024-02-26T05:00:49;7.70;99.90
3380;DHT22;1703;51.964;7.642;2024-02-26T05:03:16;7.70;99.90
3380;DHT22;1703;51.964;7.642;2024-02-26T05:05:43;7.70;99.90
3380;DHT22;1703;51.964;7.642;2024-02-26T05:08:10;7.70;99.90
3380;DHT22;1703;51.964;7.642;2024-02-26T05:10:37;7.70;99.90
3380;DHT22;1703;51.964;7.642;2024-02-26T05:13:07;7.70;99.90
3380;DHT22;1703;51.964;7.642;2024-02-26T05:15:34;7.60;99.90
3380;DHT22;1703;51.964;7.642;2024-02-26T05:18:01;7.70;99.90
3380;DHT22;1703;51.964;7.642;2024-02-26T05:20:28;7.70;99.90
3380;DHT22;1703;51.964;7.642;2024-02-26T05:22:56;7.70;99.90
3380;DHT22;1703;51.964;7.642;2024-02-26T05:25:24;7.60;99.90
3380;DHT22;1703;51.964;7.642;2024-02-26T05:27:55;7.60;99.90
3380;DHT22;1703;51.964;7.642;2024-02-26T05:30:24;7.60;99.90
3380;DHT22;1703;51.964;7.642;2024-02-26T05:32:52;7.60;99.90
3380;DHT22;1703;51.964;7.642;2024-02-26T05:35:19;7.60;99.90
3380;DHT22;1703;51.964;7.642;2024-02-26T05:37:46;7.60;99.90
3380;DHT22;1703;51.964;7.642;2024-02-26T05:40:13;7.60;99.90
3380;DHT22;1703;51.964;7.642;2024-02-26T05:42:39;7.60;99.90
3380;DHT22;1703;51.964;7.642;2024-02-26T05:45:07;7.60;99.90
3380;DHT22;1703;51.964;7.642;2024-02-26T05:47:35;7.60;99.90
3380;DHT22;1703;51.964;7.642;2024-02-26T05:50:08;7.60;99.90
3380;DHT22;1703;51.964;7.642;2024-02-26T05:52:36;7.70;99.90
3380;DHT22;1703;51.964;7.642;2024-02-26T05:55:03;7.70;99.90
3380;DHT22;1703;51.964;7.642;2024-02-26T05:57:31;7.70;99.90
3380;DHT22;1703;51.964;7.642;2024-02-26T05:59:57;7.60;99.90
3380;DHT22;1703;51.964;7.642;2024-02-26T06:02:38;7.60;99.90
3380;DHT22;1703;51.964;7.642;2024-02-26T06:05:05;7.50;99.90
3380;DHT22;1703;51.964;7.642;2024-02-26T06:07:34;7.50;99.90
3380;DHT22;1703;51.964;7.642;2024-02-26T06:10:01;7.50;99.90
3380;DHT22;1703;51.964;7.642;2024-02-26T06:12:30;7.50;99.90
3380;DHT22;1703;51.964;7.642;2024-02-26T06:14:58;7.50;99.90
3380;DHT22;1703;51.964;7.642;2024-02-26T06:17:26;7.50;99.90
3380;DHT22;1703;51.964;7.642;2024-02-26T06:19:54;7.60;99.90
3380;DHT22;1703;51.964;7.642;2024-02-26T06:22:21;7.50;99.90
3380;DHT22;1703;51.964;7.642;2024-02-26T06:24:48;7.50;99.90
3380;DHT22;1703;51.964;7.642;2024-02-26T06:27:15;7.50;99.90
3380;DHT22;1703;51.964;7.642;2024-02-26T06:29:41;7.50;99.90
3380;DHT22;1703;51.964;7.642;2024-02-26T06:32:08;7.60;99.90
3380;DHT22;1703;51.964;7.642;2024-02-26T06:34:35;7.60;99.90
3380;DHT22;1703;51.964;7.642;2024-02-26T06:37:05;7.50;99.90
3380;DHT22;1703;51.964;7.642;2024-02-26T06:39:32;7.60;99.90
3380;DHT22;1703;51.964;7.642;2024-02-26T06:41:59;7.60;99.90
3380;DHT22;1703;51.964;7.642;2024-02-26T06:44:27;7.50;99.90
3380;DHT22;1703;51.964;7.642;2024-02-26T06:46:57;7.50;99.90
3380;DHT22;1703;51.964;7.642;2024-02-26T06:49:24;7.50;99.90
3380;DHT22;1703;51.964;7.642;2024-02-26T06:51:51;7.60;99.90
3380;DHT22;1703;51.964;7.642;2024-02-26T06:54:20;7.40;99.90
3380;DHT22;1703;51.964;7.642;2024-02-26T06:56:47;7.40;99.90
3380;DHT22;1703;51.964;7.642;2024-02-26T06:59:13;7.50;99.90
3380;DHT22;1703;51.964;7.642;2024-02-26T07:01:41;7.40;99.90
3380;DHT22;1703;51.964;7.642;2024-02-26T07:04:07;7.30;99.90
3380;DHT22;1703;51.964;7.642;2024-02-26T07:06:36;7.40;99.90
3380;DHT22;1703;51.964;7.642;2024-02-26T07:09:03;7.40;99.90
3380;DHT22;1703;51.964;7.642;2024-02-26T07:11:31;7.40;99.90
3380;DHT22;1703;51.964;7.642;2024-02-26T07:13:58;7.50;99.90
3380;DHT22;1703;51.964;7.642;2024-02-26T07:16:24;7.50;99.90
3380;DHT22;1703;51.964;7.642;2024-02-26T07:18:52;7.50;99.90
3380;DHT22;1703;51.964;7.642;2024-02-26T07:21:19;7.60;99.90
3380;DHT22;1703;51.964;7.642;2024-02-26T07:23:45;7.60;99.90
3380;DHT22;1703;51.964;7.642;2024-02-26T07:26:12;7.70;99.90
3380;DHT22;1703;51.964;7.642;2024-02-26T07:28:40;7.70;99.90
3380;DHT22;1703;51.964;7.642;2024-02-26T07:31:07;7.60;99.90
3380;DHT22;1703;51.964;7.642;2024-02-26T07:33:34;7.70;99.90
3380;DHT22;1703;51.964;7.642;2024-02-26T07:36:00;7.70;99.90
3380;DHT22;1703;51.964;7.642;2024-02-26T07:38:27;7.80;99.90
3380;DHT22;1703;51.964;7.642;2024-02-26T07:40:54;7.80;99.90
3380;DHT22;1703;51.964;7.642;2024-02-26T07:43:22;7.80;99.90
3380;DHT22;1703;51.964;7.642;2024-02-26T07:45:50;7.80;99.90
3380;DHT22;1703;51.964;7.642;2024-02-26T07:48:17;7.90;99.90
3380;DHT22;1703;51.964;7.642;2024-02-26T07:50:44;7.90;99.90
3380;DHT22;1703;51.964;7.642;2024-02-26T07:53:10;7.90;99.90
3380;DHT22;1703;51.964;7.642;2024-02-26T07:55:37;7.90;99.90
3380;DHT22;1703;51.964;7.642;2024-02-26T07:58:04;7.90;99.90
3380;DHT22;1703;51.964;7.642;2024-02-26T08:00:31;8.00;99.90
3380;DHT22;1703;51.964;7.642;2024-02-26T08:02:59;7.90;99.90
3380;DHT22;1703;51.964;7.642;2024-02-26T08:05:26;7.90;99.90
3380;DHT22;1703;51.964;7.642;2024-02-26T08:07:52;8.00;99.90
3380;DHT22;1703;51.964;7.642;2024-02-26T08:10:20;8.10;99.90
3380;DHT22;1703;51.964;7.642;2024-02-26T08:12:47;8.20;99.90
3380;DHT22;1703;51.964;7.642;2024-02-26T08:15:14;8.30;99.90
3380;DHT22;1703;51.964;7.642;2024-02-26T08:17:40;8.40;99.90
3380;DHT22;1703;51.964;7.642;2024-02-26T08:20:09;8.50;99.90
3380;DHT22;1703;51.964;7.642;2024-02-26T08:22:36;8.50;99.90
3380;DHT22;1703;51.964;7.642;2024-02-26T08:25:05;8.50;99.90
3380;DHT22;1703;51.964;7.642;2024-02-26T08:27:34;8.60;99.90
3380;DHT22;1703;51.964;7.642;2024-02-26T08:30:01;8.60;99.90
3380;DHT22;1703;51.964;7.642;2024-02-26T08:32:28;8.60;99.90
3380;DHT22;1703;51.964;7.642;2024-02-26T08:34:55;8.60;99.90
3380;DHT22;1703;51.964;7.642;2024-02-26T08:37:23;8.70;99.90
3380;DHT22;1703;51.964;7.642;2024-02-26T08:39:50;8.70;99.90
3380;DHT22;1703;51.964;7.642;2024-02-26T08:42:16;8.80;99.90
3380;DHT22;1703;51.964;7.642;2024-02-26T08:44:43;8.80;99.90
3380;DHT22;1703;51.964;7.642;2024-02-26T08:47:10;8.80;99.90
3380;DHT22;1703;51.964;7.642;2024-02-26T08:49:36;8.80;99.90
3380;DHT22;1703;51.964;7.642;2024-02-26T08:52:04;8.90;99.90
3380;DHT22;1703;51.964;7.642;2024-02-26T08:54:33;8.90;99.90
3380;DHT22;1703;51.964;7.642;2024-02-26T08:57:00;9.00;99.90
3380;DHT22;1703;51.964;7.642;2024-02-26T08:59:26;9.00;99.90
3380;DHT22;1703;51.964;7.642;2024-02-26T09:01:53;9.00;99.90
3380;DHT22;1703;51.964;7.642;2024-02-26T09:04:20;8.90;99.90
3380;DHT22;1703;51.964;7.642;2024-02-26T09:06:47;9.00;99.90
3380;DHT22;1703;51.964;7.642;2024-02-26T09:09:14;8.90;99.90
3380;DHT22;1703;51.964;7.642;2024-02-26T09:11:42;8.90;99.90
3380;DHT22;1703;51.964;7.642;2024-02-26T09:14:09;9.00;99.90
3380;DHT22;1703;51.964;7.642;2024-02-26T09:16:36;8.90;99.90
3380;DHT22;1703;51.964;7.642;2024-02-26T09:19:02;9.00;99.90
3380;DHT22;1703;51.964;7.642;2024-02-26T09:21:29;9.10;99.90
3380;DHT22;1703;51.964;7.642;2024-02-26T09:23:56;9.10;99.90
3380;DHT22;1703;51.964;7.642;2024-02-26T09:26:22;9.10;99.90
3380;DHT22;1703;51.964;7.642;2024-02-26T09:28:50;9.10;99.90
3380;DHT22;1703;51.964;7.642;2024-02-26T09:31:17;9.10;99.90
3380;DHT22;1703;51.964;7.642;2024-02-26T09:33:44;9.10;99.90
3380;DHT22;1703;51.964;7.642;2024-02-26T09:36:11;9.00;99.90
3380;DHT22;1703;51.964;7.642;2024-02-26T09:38:38;9.00;99.90
3380;DHT22;1703;51.964;7.642;2024-02-26T09:41:05;9.00;99.90
3380;DHT22;1703;51.964;7.642;2024-02-26T09:43:34;9.00;99.90
3380;DHT22;1703;51.964;7.642;2024-02-26T09:46:03;9.00;99.90
3380;DHT22;1703;51.964;7.642;2024-02-26T09:48:30;9.00;99.90
3380;DHT22;1703;51.964;7.642;2024-02-26T09:50:57;9.00;99.90
3380;DHT22;1703;51.964;7.642;2024-02-26T09:53:24;9.00;99.90
3380;DHT22;1703;51.964;7.642;2024-02-26T09:55:51;9.10;99.90
3380;DHT22;1703;51.964;7.642;2024-02-26T09:58:18;9.00;99.90
3380;DHT22;1703;51.964;7.642;2024-02-26T10:00:49;9.00;99.90
3380;DHT22;1703;51.964;7.642;2024-02-26T10:03:21;9.00;99.90
3380;DHT22;1703;51.964;7.642;2024-02-26T10:05:50;9.00;99.90
3380;DHT22;1703;51.964;7.642;2024-02-26T10:08:21;9.20;99.90
3380;DHT22;1703;51.964;7.642;2024-02-26T10:10:49;9.20;99.90
3380;DHT22;1703;51.964;7.642;2024-02-26T10:13:16;9.30;99.90
3380;DHT22;1703;51.964;7.642;2024-02-26T10:15:42;9.40;99.90
3380;DHT22;1703;51.964;7.642;2024-02-26T10:18:09;9.30;99.90
3380;DHT22;1703;51.964;7.642;2024-02-26T10:20:37;9.50;99.90
3380;DHT22;1703;51.964;7.642;2024-02-26T10:23:04;9.50;99.90
3380;DHT22;1703;51.964;7.642;2024-02-26T10:25:31;9.50;99.90
3380;DHT22;1703;51.964;7.642;2024-02-26T10:28:00;9.30;99.90
3380;DHT22;1703;51.964;7.642;2024-02-26T10:30:28;9.40;99.90
3380;DHT22;1703;51.964;7.642;2024-02-26T10:32:56;9.30;99.90
3380;DHT22;1703;51.964;7.642;2024-02-26T10:35:23;9.30;99.90
3380;DHT22;1703;51.964;7.642;2024-02-26T10:37:51;9.20;99.90
3380;DHT22;1703;51.964;7.642;2024-02-26T10:40:19;9.30;99.90
3380;DHT22;1703;51.964;7.642;2024-02-26T10:42:45;9.20;99.90
3380;DHT22;1703;51.964;7.642;2024-02-26T10:45:12;9.20;99.90
3380;DHT22;1703;51.964;7.642;2024-02-26T10:47:40;9.30;99.90
3380;DHT22;1703;51.964;7.642;2024-02-26T10:50:08;9.30;99.90
3380;DHT22;1703;51.964;7.642;2024-02-26T10:52:36;9.10;99.90
3380;DHT22;1703;51.964;7.642;2024-02-26T10:55:05;9.10;99.90
3380;DHT22;1703;51.964;7.642;2024-02-26T10:57:36;9.10;99.90
3380;DHT22;1703;51.964;7.642;2024-02-26T11:00:06;9.10;99.90
3380;DHT22;1703;51.964;7.642;2024-02-26T11:02:36;9.10;99.90
3380;DHT22;1703;51.964;7.642;2024-02-26T11:05:03;9.00;99.90
3380;DHT22;1703;51.964;7.642;2024-02-26T11:07:31;9.00;99.90
3380;DHT22;1703;51.964;7.642;2024-02-26T11:09:59;9.20;99.90
3380;DHT22;1703;51.964;7.642;2024-02-26T11:12:29;9.00;99.90
3380;DHT22;1703;51.964;7.642;2024-02-26T11:14:56;9.10;99.90
3380;DHT22;1703;51.964;7.642;2024-02-26T11:17:26;9.20;99.90
3380;DHT22;1703;51.964;7.642;2024-02-26T11:19:55;9.10;99.90
3380;DHT22;1703;51.964;7.642;2024-02-26T11:22:23;9.00;99.90
3380;DHT22;1703;51.964;7.642;2024-02-26T11:24:52;9.00;99.90
3380;DHT22;1703;51.964;7.642;2024-02-26T11:27:22;8.90;99.90
3380;DHT22;1703;51.964;7.642;2024-02-26T11:29:52;8.80;99.90
3380;DHT22;1703;51.964;7.642;2024-02-26T11:32:21;8.90;99.90
3380;DHT22;1703;51.964;7.642;2024-02-26T11:34:48;8.90;99.90
3380;DHT22;1703;51.964;7.642;2024-02-26T11:37:17;8.80;99.90
3380;DHT22;1703;51.964;7.642;2024-02-26T11:39:45;8.80;99.90
3380;DHT22;1703;51.964;7.642;2024-02-26T11:42:14;8.80;99.90
3380;DHT22;1703;51.964;7.642;2024-02-26T11:44:41;8.80;99.90
3380;DHT22;1703;51.964;7.642;2024-02-26T11:47:13;8.80;99.90
3380;DHT22;1703;51.964;7.642;2024-02-26T11:49:40;8.80;99.90
3380;DHT22;1703;51.964;7.642;2024-02-26T11:52:08;8.70;99.90
3380;DHT22;1703;51.964;7.642;2024-02-26T11:54:39;8.70;99.90
3380;DHT22;1703;51.964;7.642;2024-02-26T11:57:20;8.70;99.90
3380;DHT22;1703;51.964;7.642;2024-02-26T11:59:47;8.80;99.90
3380;DHT22;1703;51.964;7.642;2024-02-26T12:02:41;8.90;99.90
3380;DHT22;1703;51.964;7.642;2024-02-26T12:05:11;8.80;99.90
3380;DHT22;1703;51.964;7.642;2024-02-26T12:07:40;8.80;99.90
3380;DHT22;1703;51.964;7.642;2024-02-26T12:10:25;8.50;99.90
3380;DHT22;1703;51.964;7.642;2024-02-26T12:12:55;8.60;99.90
3380;DHT22;1703;51.964;7.642;2024-02-26T12:15:27;8.60;99.90
3380;DHT22;1703;51.964;7.642;2024-02-26T12:17:58;8.50;99.90
3380;DHT22;1703;51.964;7.642;2024-02-26T12:20:26;8.50;99.90
3380;DHT22;1703;51.964;7.642;2024-02-26T12:22:54;8.40;99.90
3380;DHT22;1703;51.964;7.642;2024-02-26T12:25:23;8.50;99.90
3380;DHT22;1703;51.964;7.642;2024-02-26T12:27:50;8.60;99.90
3380;DHT22;1703;51.964;7.642;2024-02-26T12:30:17;8.60;99.90
3380;DHT22;1703;51.964;7.642;2024-02-26T12:32:44;8.70;99.90
3380;DHT22;1703;51.964;7.642;2024-02-26T12:35:12;8.50;99.90
3380;DHT22;1703;51.964;7.642;2024-02-26T12:37:40;8.50;99.90
3380;DHT22;1703;51.964;7.642;2024-02-26T12:40:08;8.40;99.90
3380;DHT22;1703;51.964;7.642;2024-02-26T12:42:35;8.40;99.90
3380;DHT22;1703;51.964;7.642;2024-02-26T12:45:06;8.50;99.90
3380;DHT22;1703;51.964;7.642;2024-02-26T12:47:36;8.50;99.90
3380;DHT22;1703;51.964;7.642;2024-02-26T12:50:03;8.60;99.90
3380;DHT22;1703;51.964;7.642;2024-02-26T12:52:32;8.70;99.90
3380;DHT22;1703;51.964;7.642;2024-02-26T12:55:00;8.70;99.90
3380;DHT22;1703;51.964;7.642;2024-02-26T12:57:28;8.80;99.90
3380;DHT22;1703;51.964;7.642;2024-02-26T12:59:56;8.80;99.90
3380;DHT22;1703;51.964;7.642;2024-02-26T13:02:23;8.90;99.90
3380;DHT22;1703;51.964;7.642;2024-02-26T13:04:50;8.90;99.90
3380;DHT22;1703;51.964;7.642;2024-02-26T13:07:17;9.00;99.90
3380;DHT22;1703;51.964;7.642;2024-02-26T13:09:45;8.90;99.90
3380;DHT22;1703;51.964;7.642;2024-02-26T13:12:12;8.90;99.90
3380;DHT22;1703;51.964;7.642;2024-02-26T13:14:39;8.90;99.90
3380;DHT22;1703;51.964;7.642;2024-02-26T13:17:06;8.90;99.90
3380;DHT22;1703;51.964;7.642;2024-02-26T13:19:33;8.80;99.90
3380;DHT22;1703;51.964;7.642;2024-02-26T13:22:04;8.90;99.90
3380;DHT22;1703;51.964;7.642;2024-02-26T13:24:32;8.80;99.90
3380;DHT22;1703;51.964;7.642;2024-02-26T13:27:00;8.90;99.90
3380;DHT22;1703;51.964;7.642;2024-02-26T13:29:28;8.90;99.90
3380;DHT22;1703;51.964;7.642;2024-02-26T13:31:55;8.90;99.90
3380;DHT22;1703;51.964;7.642;2024-02-26T13:34:24;8.80;99.90
3380;DHT22;1703;51.964;7.642;2024-02-26T13:36:51;8.70;99.90
3380;DHT22;1703;51.964;7.642;2024-02-26T13:39:22;8.80;99.90
3380;DHT22;1703;51.964;7.642;2024-02-26T13:41:50;8.90;99.90
3380;DHT22;1703;51.964;7.642;2024-02-26T13:44:19;8.90;99.90
3380;DHT22;1703;51.964;7.642;2024-02-26T13:46:47;9.00;99.90
3380;DHT22;1703;51.964;7.642;2024-02-26T13:49:15;8.90;99.90
3380;DHT22;1703;51.964;7.642;2024-02-26T13:51:41;8.90;99.90
3380;DHT22;1703;51.964;7.642;2024-02-26T13:54:08;8.90;99.90
3380;DHT22;1703;51.964;7.642;2024-02-26T13:56:36;8.90;99.90
3380;DHT22;1703;51.964;7.642;2024-02-26T13:59:03;9.00;99.90
3380;DHT22;1703;51.964;7.642;2024-02-26T14:01:32;8.90;99.90
3380;DHT22;1703;51.964;7.642;2024-02-26T14:03:59;8.80;99.90
3380;DHT22;1703;51.964;7.642;2024-02-26T14:06:27;8.90;99.90
3380;DHT22;1703;51.964;7.642;2024-02-26T14:08:56;8.90;99.90
3380;DHT22;1703;51.964;7.642;2024-02-26T14:11:22;8.80;99.90
3380;DHT22;1703;51.964;7.642;2024-02-26T14:13:50;8.80;99.90
3380;DHT22;1703;51.964;7.642;2024-02-26T14:16:17;8.80;99.90
3380;DHT22;1703;51.964;7.642;2024-02-26T14:18:47;8.80;99.90
3380;DHT22;1703;51.964;7.642;2024-02-26T14:21:13;8.70;99.90
3380;DHT22;1703;51.964;7.642;2024-02-26T14:23:41;8.70;99.90
3380;DHT22;1703;51.964;7.642;2024-02-26T14:26:09;8.80;99.90
3380;DHT22;1703;51.964;7.642;2024-02-26T14:28:36;8.70;99.90
3380;DHT22;1703;51.964;7.642;2024-02-26T14:31:05;8.70;99.90
3380;DHT22;1703;51.964;7.642;2024-02-26T14:33:32;8.80;99.90
3380;DHT22;1703;51.964;7.642;2024-02-26T14:36:00;8.90;99.90
3380;DHT22;1703;51.964;7.642;2024-02-26T14:38:27;8.90;99.90
3380;DHT22;1703;51.964;7.642;2024-02-26T14:40:54;8.90;99.90
3380;DHT22;1703;51.964;7.642;2024-02-26T14:43:21;8.90;99.90
3380;DHT22;1703;51.964;7.642;2024-02-26T14:45:47;8.90;99.90
3380;DHT22;1703;51.964;7.642;2024-02-26T14:48:14;8.90;99.90
3380;DHT22;1703;51.964;7.642;2024-02-26T14:50:41;8.90;99.90
3380;DHT22;1703;51.964;7.642;2024-02-26T14:53:09;8.90;99.90
3380;DHT22;1703;51.964;7.642;2024-02-26T14:55:36;8.80;99.90
3380;DHT22;1703;51.964;7.642;2024-02-26T14:58:03;9.00;99.90
3380;DHT22;1703;51.964;7.642;2024-02-26T15:00:30;8.90;99.90
3380;DHT22;1703;51.964;7.642;2024-02-26T15:02:59;9.00;99.90
3380;DHT22;1703;51.964;7.642;2024-02-26T15:05:26;8.80;99.90
3380;DHT22;1703;51.964;7.642;2024-02-26T15:07:52;8.70;99.90
3380;DHT22;1703;51.964;7.642;2024-02-26T15:10:20;8.70;99.90
3380;DHT22;1703;51.964;7.642;2024-02-26T15:12:47;8.60;99.90
3380;DHT22;1703;51.964;7.642;2024-02-26T15:15:14;8.50;99.90
3380;DHT22;1703;51.964;7.642;2024-02-26T15:17:41;8.50;99.90
3380;DHT22;1703;51.964;7.642;2024-02-26T15:20:09;8.50;99.90
3380;DHT22;1703;51.964;7.642;2024-02-26T15:22:37;8.60;99.90
3380;DHT22;1703;51.964;7.642;2024-02-26T15:25:04;8.60;99.90
3380;DHT22;1703;51.964;7.642;2024-02-26T15:27:32;8.60;99.90
3380;DHT22;1703;51.964;7.642;2024-02-26T15:29:59;8.50;99.90
3380;DHT22;1703;51.964;7.642;2024-02-26T15:32:26;8.50;99.90
3380;DHT22;1703;51.964;7.642;2024-02-26T15:34:53;8.50;99.90
3380;DHT22;1703;51.964;7.642;2024-02-26T15:37:20;8.40;99.90
3380;DHT22;1703;51.964;7.642;2024-02-26T15:39:47;8.50;99.90
3380;DHT22;1703;51.964;7.642;2024-02-26T15:42:14;8.50;99.90
3380;DHT22;1703;51.964;7.642;2024-02-26T15:44:42;8.60;99.90
3380;DHT22;1703;51.964;7.642;2024-02-26T15:47:09;8.50;99.90
3380;DHT22;1703;51.964;7.642;2024-02-26T15:49:36;8.50;99.90
3380;DHT22;1703;51.964;7.642;2024-02-26T15:52:03;8.50;99.90
3380;DHT22;1703;51.964;7.642;2024-02-26T15:54:30;8.50;99.90
3380;DHT22;1703;51.964;7.642;2024-02-26T15:56:57;8.60;99.90
3380;DHT22;1703;51.964;7.642;2024-02-26T15:59:25;8.50;99.90
3380;DHT22;1703;51.964;7.642;2024-02-26T16:01:53;8.50;99.90
3380;DHT22;1703;51.964;7.642;2024-02-26T16:04:20;8.50;99.90
3380;DHT22;1703;51.964;7.642;2024-02-26T16:06:49;8.50;99.90
3380;DHT22;1703;51.964;7.642;2024-02-26T16:09:18;8.50;99.90
3380;DHT22;1703;51.964;7.642;2024-02-26T16:11:45;8.40;99.90
3380;DHT22;1703;51.964;7.642;2024-02-26T16:14:17;8.40;99.90
3380;DHT22;1703;51.964;7.642;2024-02-26T16:16:54;8.40;99.90
3380;DHT22;1703;51.964;7.642;2024-02-26T16:19:24;8.40;99.90